createdAt,value
2023-04-10T00:00:13.332Z,10.72
2023-04-10T00:02:41.017Z,10.63
2023-04-10T00:05:09.373Z,10.74
2023-04-10T00:07:36.781Z,10.71
2023-04-10T00:10:04.486Z,10.66
2023-04-10T00:12:33.381Z,10.72
2023-04-10T00:15:00.826Z,10.56
2023-04-10T00:17:28.251Z,10.47
2023-04-10T00:19:55.785Z,10.61
2023-04-10T00:22:23.211Z,10.38
2023-04-10T00:24:50.691Z,10.53
2023-04-10T00:27:18.118Z,10.62
2023-04-10T00:29:46.877Z,10.30
2023-04-10T00:32:14.533Z,10.29
2023-04-10T00:34:42.091Z,10.17
2023-04-10T00:37:09.501Z,10.20
2023-04-10T00:39:37.139Z,10.03
2023-04-10T00:42:09.313Z,10.05
2023-04-10T00:44:37.387Z,10.09
2023-04-10T00:47:06.480Z,10.05
2023-04-10T00:49:34.857Z,10.02
2023-04-10T00:52:02.574Z,9.98
2023-04-10T00:54:31.313Z,10.02
2023-04-10T00:56:59.741Z,9.93
2023-04-10T00:59:27.236Z,9.97
2023-04-10T01:01:54.732Z,10.09
2023-04-10T01:04:26.660Z,10.08
2023-04-10T01:07:00.506Z,10.03
2023-04-10T01:09:39.591Z,10.13
2023-04-10T01:12:17.093Z,10.06
2023-04-10T01:14:53.998Z,10.28
2023-04-10T01:17:29.381Z,10.18
2023-04-10T01:20:05.459Z,10.18
2023-04-10T01:22:37.481Z,10.14
2023-04-10T01:25:20.382Z,9.94
2023-04-10T01:28:06.299Z,9.83
2023-04-10T01:30:36.449Z,9.86
2023-04-10T01:33:06.904Z,9.80
2023-04-10T01:35:35.927Z,9.79
2023-04-10T01:38:07.224Z,9.97
2023-04-10T01:40:39.596Z,10.06
2023-04-10T01:43:11.320Z,9.94
2023-04-10T01:45:43.436Z,10.00
2023-04-10T01:48:11.649Z,9.97
2023-04-10T01:50:39.537Z,9.87
2023-04-10T01:53:08.255Z,9.83
2023-04-10T01:55:38.121Z,9.79
2023-04-10T01:58:05.816Z,9.90
2023-04-10T02:00:41.253Z,9.92
2023-04-10T02:03:08.969Z,9.88
2023-04-10T02:05:47.099Z,9.98
2023-04-10T02:08:19.581Z,9.84
2023-04-10T02:10:53.014Z,9.82
2023-04-10T02:13:23.067Z,9.90
2023-04-10T02:15:53.134Z,9.85
2023-04-10T02:18:22.929Z,9.42
2023-04-10T02:20:50.697Z,9.48
2023-04-10T02:23:19.272Z,9.75
2023-04-10T02:25:46.795Z,9.49
2023-04-10T02:28:14.205Z,9.33
2023-04-10T02:30:41.666Z,9.26
2023-04-10T02:33:10.667Z,9.21
2023-04-10T02:35:38.205Z,9.22
2023-04-10T02:38:05.748Z,9.37
2023-04-10T02:40:33.420Z,9.28
2023-04-10T02:43:00.905Z,9.30
2023-04-10T02:45:28.420Z,9.17
2023-04-10T02:47:56.165Z,8.94
2023-04-10T02:50:25.037Z,9.03
2023-04-10T02:52:52.453Z,9.12
2023-04-10T02:55:20.099Z,8.99
2023-04-10T02:57:47.747Z,9.19
2023-04-10T03:00:16.179Z,9.40
2023-04-10T03:02:43.723Z,9.36
2023-04-10T03:05:11.488Z,9.47
2023-04-10T03:07:40.555Z,9.40
2023-04-10T03:10:09.251Z,9.39
2023-04-10T03:12:37.023Z,9.49
2023-04-10T03:15:05.039Z,9.47
2023-04-10T03:17:32.739Z,9.24
2023-04-10T03:20:00.296Z,9.01
2023-04-10T03:22:31.756Z,8.79
2023-04-10T03:25:01.250Z,8.78
2023-04-10T03:27:29.090Z,8.61
2023-04-10T03:29:56.528Z,8.56
2023-04-10T03:32:23.982Z,8.63
2023-04-10T03:34:51.465Z,8.72
2023-04-10T03:37:19.480Z,8.65
2023-04-10T03:39:46.881Z,8.75
2023-04-10T03:42:15.627Z,8.50
2023-04-10T03:44:43.077Z,8.56
2023-04-10T03:47:10.849Z,8.28
2023-04-10T03:49:38.424Z,8.34
2023-04-10T03:52:06.218Z,8.38
2023-04-10T03:54:33.664Z,8.31
2023-04-10T03:57:01.503Z,8.33
2023-04-10T03:59:38.241Z,8.28
2023-04-10T04:02:08.042Z,8.25
2023-04-10T04:04:35.778Z,8.38
2023-04-10T04:07:03.422Z,8.43
2023-04-10T04:09:31.122Z,8.43
2023-04-10T04:11:58.532Z,8.50
2023-04-10T04:14:25.961Z,8.33
2023-04-10T04:16:54.789Z,8.08
2023-04-10T04:19:22.329Z,8.55
2023-04-10T04:21:49.789Z,8.61
2023-04-10T04:24:17.218Z,8.60
2023-04-10T04:26:44.674Z,8.72
2023-04-10T04:29:12.112Z,8.83
2023-04-10T04:31:39.606Z,8.66
2023-04-10T04:34:08.366Z,8.76
2023-04-10T04:36:35.849Z,8.99
2023-04-10T04:39:03.246Z,9.14
2023-04-10T04:41:32.312Z,9.10
2023-04-10T04:44:01.094Z,9.13
2023-04-10T04:46:28.724Z,9.29
2023-04-10T04:48:56.208Z,9.41
2023-04-10T04:51:24.977Z,9.30
2023-04-10T04:53:52.683Z,9.13
2023-04-10T04:56:20.412Z,9.41
2023-04-10T04:58:47.842Z,9.35
2023-04-10T05:01:15.698Z,9.57
2023-04-10T05:03:43.385Z,9.69
2023-04-10T05:06:11.126Z,10.30
2023-04-10T05:08:39.865Z,10.31
2023-04-10T05:11:07.927Z,10.98
2023-04-10T05:13:35.374Z,11.37
2023-04-10T05:16:02.879Z,11.57
2023-04-10T05:18:30.595Z,11.34
2023-04-10T05:20:58.103Z,11.14
2023-04-10T05:23:25.764Z,11.13
2023-04-10T05:25:54.515Z,11.45
2023-04-10T05:28:22.741Z,11.49
2023-04-10T05:30:50.251Z,11.67
2023-04-10T05:33:17.720Z,12.29
2023-04-10T05:35:45.273Z,13.53
2023-04-10T05:38:12.780Z,12.98
2023-04-10T05:40:40.213Z,13.36
2023-04-10T05:43:09.698Z,14.59
2023-04-10T05:45:37.238Z,15.09
2023-04-10T05:48:04.981Z,15.84
2023-04-10T05:50:32.420Z,15.56
2023-04-10T05:52:59.878Z,14.92
2023-04-10T05:55:27.308Z,14.63
2023-04-10T05:57:54.751Z,15.00
2023-04-10T06:00:23.545Z,16.61
2023-04-10T06:02:51.090Z,17.22
2023-04-10T06:05:18.912Z,16.25
2023-04-10T06:07:46.461Z,15.13
2023-04-10T06:10:13.955Z,14.60
2023-04-10T06:12:41.649Z,14.30
2023-04-10T06:15:09.834Z,14.01
2023-04-10T06:17:44.476Z,14.14
2023-04-10T06:20:12.801Z,13.53
2023-04-10T06:22:40.605Z,13.62
2023-04-10T06:25:08.559Z,13.79
2023-04-10T06:27:36.493Z,12.47
2023-04-10T06:30:04.342Z,13.04
2023-04-10T06:32:32.140Z,12.72
2023-04-10T06:35:00.970Z,13.46
2023-04-10T06:37:31.189Z,13.76
2023-04-10T06:40:04.670Z,13.81
2023-04-10T06:42:35.663Z,13.86
2023-04-10T06:45:03.397Z,12.08
2023-04-10T06:47:31.606Z,13.08
2023-04-10T06:49:59.080Z,13.21
2023-04-10T06:52:27.941Z,11.72
2023-04-10T06:54:55.439Z,12.04
2023-04-10T06:57:22.885Z,13.10
2023-04-10T06:59:50.349Z,13.32
2023-04-10T07:02:17.899Z,13.06
2023-04-10T07:04:45.672Z,13.38
2023-04-10T07:07:13.433Z,13.44
2023-04-10T07:09:42.428Z,13.01
2023-04-10T07:12:09.905Z,13.05
2023-04-10T07:14:37.461Z,12.57
2023-04-10T07:17:04.922Z,12.46
2023-04-10T07:19:32.485Z,13.45
2023-04-10T07:22:00.705Z,13.65
2023-04-10T07:24:28.407Z,13.55
2023-04-10T07:26:58.123Z,13.87
2023-04-10T07:29:25.692Z,13.95
2023-04-10T07:32:01.096Z,13.77
2023-04-10T07:34:28.730Z,11.70
2023-04-10T07:36:56.130Z,13.59
2023-04-10T07:39:23.629Z,13.47
2023-04-10T07:41:51.169Z,13.64
2023-04-10T07:44:19.939Z,14.80
2023-04-10T07:46:47.528Z,15.03
2023-04-10T07:49:15.001Z,14.80
2023-04-10T07:51:42.473Z,13.15
2023-04-10T07:54:10.046Z,13.41
2023-04-10T07:56:37.637Z,14.32
2023-04-10T07:59:05.295Z,14.38
2023-04-10T08:01:34.323Z,14.73
2023-04-10T08:04:04.768Z,14.59
2023-04-10T08:06:33.351Z,14.55
2023-04-10T08:09:02.072Z,14.56
2023-04-10T08:11:31.229Z,13.87
2023-04-10T08:14:01.708Z,14.67
2023-04-10T08:16:31.363Z,14.92
2023-04-10T08:19:00.848Z,14.57
2023-04-10T08:21:30.106Z,14.80
2023-04-10T08:23:58.754Z,14.99
2023-04-10T08:26:27.623Z,14.99
2023-04-10T08:28:57.508Z,15.12
2023-04-10T08:31:27.404Z,14.80
2023-04-10T08:33:55.456Z,14.89
2023-04-10T08:36:24.980Z,15.24
2023-04-10T08:38:52.406Z,15.04
2023-04-10T08:41:20.917Z,14.80
2023-04-10T08:43:49.776Z,15.10
2023-04-10T08:46:17.449Z,15.31
2023-04-10T08:48:47.984Z,15.63
2023-04-10T08:51:20.443Z,14.53
2023-04-10T08:54:01.713Z,14.78
2023-04-10T08:56:29.297Z,15.46
2023-04-10T08:58:56.888Z,15.56
2023-04-10T09:01:24.613Z,15.64
2023-04-10T09:03:52.467Z,15.37
2023-04-10T09:06:19.967Z,15.97
2023-04-10T09:08:47.442Z,16.18
2023-04-10T09:11:16.256Z,16.02
2023-04-10T09:13:45.017Z,15.92
2023-04-10T09:16:12.864Z,15.40
2023-04-10T09:18:48.337Z,15.19
2023-04-10T09:21:17.687Z,15.50
2023-04-10T09:23:45.997Z,16.05
2023-04-10T09:26:27.083Z,16.26
2023-04-10T09:28:59.369Z,16.41
2023-04-10T09:31:34.925Z,16.40
2023-04-10T09:34:09.166Z,15.73
2023-04-10T09:36:36.932Z,15.73
2023-04-10T09:39:05.181Z,16.10
2023-04-10T09:41:34.528Z,14.77
2023-04-10T09:44:09.839Z,15.42
2023-04-10T09:46:37.323Z,15.99
2023-04-10T09:49:07.243Z,15.03
2023-04-10T09:51:36.547Z,14.98
2023-04-10T09:54:04.462Z,14.29
2023-04-10T09:56:32.743Z,14.48
2023-04-10T09:59:04.724Z,14.69
2023-04-10T10:01:35.229Z,15.26
2023-04-10T10:04:04.419Z,16.50
2023-04-10T10:06:33.109Z,16.15
2023-04-10T10:09:03.806Z,16.82
2023-04-10T10:11:34.755Z,16.85
2023-04-10T10:14:09.003Z,16.84
2023-04-10T10:16:44.335Z,16.19
2023-04-10T10:19:17.250Z,16.81
2023-04-10T10:21:45.786Z,16.19
2023-04-10T10:24:14.504Z,16.44
2023-04-10T10:26:42.766Z,17.05
2023-04-10T10:29:13.377Z,16.68
2023-04-10T10:31:41.290Z,16.75
2023-04-10T10:34:09.790Z,16.49
2023-04-10T10:36:38.342Z,17.10
2023-04-10T10:39:33.517Z,17.26
2023-04-10T10:42:07.564Z,17.12
2023-04-10T10:44:43.749Z,16.93
2023-04-10T10:47:16.642Z,16.73
2023-04-10T10:49:55.293Z,17.71
2023-04-10T10:52:38.511Z,17.33
2023-04-10T10:55:32.540Z,17.17
2023-04-10T10:58:02.025Z,17.53
2023-04-10T11:01:09.840Z,16.90
2023-04-10T11:03:38.328Z,17.26
2023-04-10T11:06:08.828Z,16.94
2023-04-10T11:08:47.197Z,17.89
2023-04-10T11:11:16.844Z,17.22
2023-04-10T11:14:17.723Z,17.06
2023-04-10T11:16:48.320Z,17.18
2023-04-10T11:19:22.436Z,17.44
2023-04-10T11:22:05.489Z,18.05
2023-04-10T11:24:58.468Z,17.23
2023-04-10T11:27:48.682Z,16.72
2023-04-10T11:30:34.290Z,16.95
2023-04-10T11:33:05.504Z,16.79
2023-04-10T11:35:33.877Z,16.91
2023-04-10T11:38:15.739Z,16.68
2023-04-10T11:41:01.502Z,17.59
2023-04-10T11:43:29.362Z,17.29
2023-04-10T11:46:04.592Z,17.22
2023-04-10T11:48:33.611Z,17.69
2023-04-10T11:51:08.520Z,17.52
2023-04-10T11:53:36.077Z,18.18
2023-04-10T11:56:03.604Z,18.07
2023-04-10T11:58:32.012Z,17.16
2023-04-10T12:01:04.093Z,17.46
2023-04-10T12:03:41.286Z,16.48
2023-04-10T12:06:11.469Z,17.74
2023-04-10T12:08:40.443Z,17.35
2023-04-10T12:11:09.459Z,17.27
2023-04-10T12:13:37.241Z,17.99
2023-04-10T12:16:06.967Z,18.34
2023-04-10T12:18:35.942Z,18.57
2023-04-10T12:21:06.851Z,18.52
2023-04-10T12:23:38.357Z,18.44
2023-04-10T12:26:14.180Z,18.73
2023-04-10T12:28:43.500Z,18.94
2023-04-10T12:31:11.200Z,18.62
2023-04-10T12:33:38.652Z,18.56
2023-04-10T12:36:20.608Z,18.79
2023-04-10T12:38:48.058Z,18.82
2023-04-10T12:41:22.577Z,18.79
2023-04-10T12:43:50.046Z,17.48
2023-04-10T12:46:25.915Z,17.06
2023-04-10T12:48:53.804Z,16.87
2023-04-10T12:51:42.482Z,17.05
2023-04-10T12:54:09.862Z,16.80
2023-04-10T12:56:42.452Z,17.60
2023-04-10T12:59:10.049Z,16.97
2023-04-10T13:01:38.786Z,17.96
2023-04-10T13:04:06.480Z,18.50
2023-04-10T13:06:43.462Z,18.40
2023-04-10T13:09:10.845Z,18.28
2023-04-10T13:11:38.328Z,18.43
2023-04-10T13:14:05.827Z,17.56
2023-04-10T13:16:33.406Z,18.26
2023-04-10T13:19:01.461Z,18.39
2023-04-10T13:21:29.051Z,18.36
2023-04-10T13:23:58.100Z,18.73
2023-04-10T13:26:25.882Z,18.76
2023-04-10T13:28:53.831Z,18.88
2023-04-10T13:31:21.404Z,17.82
2023-04-10T13:33:49.442Z,17.60
2023-04-10T13:36:16.956Z,17.54
2023-04-10T13:38:44.433Z,17.28
2023-04-10T13:41:13.216Z,18.42
2023-04-10T13:43:40.774Z,18.02
2023-04-10T13:46:08.468Z,18.20
2023-04-10T13:48:41.097Z,18.66
2023-04-10T13:51:09.247Z,18.30
2023-04-10T13:53:36.853Z,18.62
2023-04-10T13:56:04.338Z,18.84
2023-04-10T13:58:34.336Z,18.27
2023-04-10T14:01:02.205Z,17.62
2023-04-10T14:03:29.813Z,18.19
2023-04-10T14:05:57.406Z,18.03
2023-04-10T14:08:24.821Z,18.04
2023-04-10T14:10:52.674Z,18.66
2023-04-10T14:13:20.119Z,18.52
2023-04-10T14:15:50.015Z,18.36
2023-04-10T14:18:18.400Z,18.67
2023-04-10T14:20:45.816Z,18.82
2023-04-10T14:23:18.312Z,18.13
2023-04-10T14:25:46.123Z,17.92
2023-04-10T14:28:17.677Z,17.55
2023-04-10T14:30:45.284Z,17.66
2023-04-10T14:33:14.148Z,18.22
2023-04-10T14:35:42.013Z,17.96
2023-04-10T14:38:09.443Z,18.06
2023-04-10T14:40:37.510Z,18.34
2023-04-10T14:43:04.968Z,18.01
2023-04-10T14:45:32.640Z,17.66
2023-04-10T14:48:00.237Z,17.26
2023-04-10T14:50:29.408Z,17.25
2023-04-10T14:52:56.862Z,17.83
2023-04-10T14:55:25.137Z,18.47
2023-04-10T14:57:52.618Z,18.79
2023-04-10T15:00:20.595Z,17.65
2023-04-10T15:02:48.302Z,18.17
2023-04-10T15:05:16.024Z,18.30
2023-04-10T15:07:44.725Z,17.90
2023-04-10T15:10:12.270Z,18.40
2023-04-10T15:12:39.781Z,18.40
2023-04-10T15:15:08.457Z,17.92
2023-04-10T15:17:35.934Z,17.99
2023-04-10T15:20:04.958Z,17.22
2023-04-10T15:22:32.417Z,17.23
2023-04-10T15:25:01.311Z,17.52
2023-04-10T15:27:28.906Z,17.38
2023-04-10T15:29:56.567Z,17.22
2023-04-10T15:32:23.987Z,17.10
2023-04-10T15:34:51.420Z,17.75
2023-04-10T15:37:18.847Z,17.46
2023-04-10T15:39:46.240Z,17.74
2023-04-10T15:42:15.910Z,18.18
2023-04-10T15:44:43.348Z,18.41
2023-04-10T15:47:10.791Z,18.08
2023-04-10T15:49:38.854Z,18.59
2023-04-10T15:52:06.899Z,18.46
2023-04-10T15:54:35.602Z,18.52
2023-04-10T15:57:03.799Z,18.65
2023-04-10T15:59:33.448Z,18.78
2023-04-10T16:02:01.060Z,18.44
2023-04-10T16:04:28.995Z,17.49
2023-04-10T16:06:56.917Z,16.91
2023-04-10T16:09:26.436Z,17.54
2023-04-10T16:11:54.866Z,17.61
2023-04-10T16:14:22.772Z,18.00
2023-04-10T16:16:51.882Z,17.71
2023-04-10T16:19:19.320Z,17.94
2023-04-10T16:21:46.744Z,17.79
2023-04-10T16:24:14.236Z,17.56
2023-04-10T16:26:41.641Z,17.80
2023-04-10T16:29:09.107Z,18.11
2023-04-10T16:31:36.554Z,18.11
2023-04-10T16:34:05.281Z,18.02
2023-04-10T16:36:32.685Z,17.94
2023-04-10T16:39:00.132Z,18.07
2023-04-10T16:41:27.573Z,17.60
2023-04-10T16:43:55.428Z,17.20
2023-04-10T16:46:22.916Z,17.88
2023-04-10T16:48:51.988Z,17.70
2023-04-10T16:51:20.776Z,18.01
2023-04-10T16:53:48.154Z,18.30
2023-04-10T16:56:15.566Z,17.69
2023-04-10T16:58:43.157Z,17.35
2023-04-10T17:01:17.784Z,17.28
2023-04-10T17:03:45.527Z,17.82
2023-04-10T17:06:12.953Z,17.74
2023-04-10T17:08:41.782Z,17.49
2023-04-10T17:11:09.526Z,17.47
2023-04-10T17:13:37.156Z,17.27
2023-04-10T17:16:04.937Z,17.44
2023-04-10T17:18:33.555Z,17.55
2023-04-10T17:21:01.039Z,17.56
2023-04-10T17:23:28.507Z,17.59
2023-04-10T17:25:57.280Z,17.16
2023-04-10T17:28:24.775Z,17.45
2023-04-10T17:30:52.187Z,16.85
2023-04-10T17:33:21.635Z,16.89
2023-04-10T17:35:50.558Z,17.23
2023-04-10T17:38:18.106Z,16.88
2023-04-10T17:40:45.933Z,16.76
2023-04-10T17:43:14.658Z,16.94
2023-04-10T17:45:42.327Z,17.02
2023-04-10T17:48:11.740Z,17.01
2023-04-10T17:50:39.302Z,16.69
2023-04-10T17:53:06.765Z,17.21
2023-04-10T17:55:38.844Z,16.55
2023-04-10T17:58:06.493Z,16.76
2023-04-10T18:00:35.652Z,17.04
2023-04-10T18:03:03.184Z,17.02
2023-04-10T18:05:31.190Z,16.15
2023-04-10T18:07:58.626Z,16.20
2023-04-10T18:10:26.060Z,16.16
2023-04-10T18:12:56.650Z,16.57
2023-04-10T18:15:24.051Z,16.50
2023-04-10T18:17:52.816Z,16.64
2023-04-10T18:20:20.897Z,16.77
2023-04-10T18:22:48.396Z,16.76
2023-04-10T18:25:15.973Z,16.83
2023-04-10T18:27:51.509Z,16.72
2023-04-10T18:30:19.602Z,16.62
2023-04-10T18:32:47.005Z,16.08
2023-04-10T18:35:16.137Z,16.58
2023-04-10T18:37:44.383Z,16.39
2023-04-10T18:40:16.208Z,16.15
2023-04-10T18:42:44.247Z,16.38
2023-04-10T18:45:13.329Z,16.42
2023-04-10T18:47:40.779Z,15.92
2023-04-10T18:50:10.267Z,16.46
2023-04-10T18:52:39.014Z,16.08
2023-04-10T18:55:07.201Z,16.30
2023-04-10T18:57:34.666Z,16.39
2023-04-10T19:00:04.439Z,16.46
2023-04-10T19:02:31.956Z,16.05
2023-04-10T19:04:59.666Z,16.06
2023-04-10T19:07:27.070Z,15.74
2023-04-10T19:09:56.064Z,16.29
2023-04-10T19:12:23.482Z,15.84
2023-04-10T19:14:50.898Z,16.13
2023-04-10T19:17:21.796Z,16.00
2023-04-10T19:19:49.404Z,15.80
2023-04-10T19:22:17.124Z,15.43
2023-04-10T19:24:44.572Z,15.64
2023-04-10T19:27:13.423Z,16.09
2023-04-10T19:29:40.850Z,16.35
2023-04-10T19:32:09.585Z,16.70
2023-04-10T19:34:37.025Z,17.06
2023-04-10T19:37:04.482Z,17.31
2023-04-10T19:39:31.923Z,17.39
2023-04-10T19:41:59.486Z,17.38
2023-04-10T19:44:28.390Z,17.69
2023-04-10T19:46:55.926Z,17.34
2023-04-10T19:49:23.517Z,17.55
2023-04-10T19:51:51.139Z,17.54
2023-04-10T19:54:18.607Z,17.66
2023-04-10T19:56:46.060Z,17.71
2023-04-10T19:59:13.520Z,17.19
2023-04-10T20:01:42.319Z,17.54
2023-04-10T20:04:09.936Z,17.56
2023-04-10T20:06:37.547Z,17.48
2023-04-10T20:09:05.126Z,17.37
2023-04-10T20:11:32.795Z,16.63
2023-04-10T20:14:00.364Z,15.96
2023-04-10T20:16:27.855Z,15.91
2023-04-10T20:18:56.905Z,15.63
2023-04-10T20:21:24.514Z,15.88
2023-04-10T20:23:51.984Z,16.05
2023-04-10T20:26:19.402Z,15.92
2023-04-10T20:28:46.927Z,15.85
2023-04-10T20:31:15.218Z,15.41
2023-04-10T20:33:42.732Z,15.47
2023-04-10T20:36:11.740Z,15.29
2023-04-10T20:38:39.462Z,15.65
2023-04-10T20:41:07.062Z,15.54
2023-04-10T20:43:34.506Z,15.10
2023-04-10T20:46:03.964Z,15.06
2023-04-10T20:48:31.446Z,15.06
2023-04-10T20:50:58.867Z,15.11
2023-04-10T20:53:28.970Z,15.26
2023-04-10T20:55:56.504Z,15.33
2023-04-10T20:58:24.128Z,15.44
2023-04-10T21:00:52.290Z,15.32
2023-04-10T21:03:20.040Z,15.40
2023-04-10T21:05:47.725Z,15.20
2023-04-10T21:08:15.400Z,15.12
2023-04-10T21:10:44.920Z,15.42
2023-04-10T21:13:13.569Z,15.01
2023-04-10T21:15:41.021Z,14.93
2023-04-10T21:18:08.452Z,15.30
2023-04-10T21:20:36.034Z,15.31
2023-04-10T21:23:03.638Z,14.91
2023-04-10T21:25:32.378Z,15.01
2023-04-10T21:28:01.495Z,14.90
2023-04-10T21:30:29.423Z,15.19
2023-04-10T21:32:57.029Z,15.36
2023-04-10T21:35:24.780Z,15.07
2023-04-10T21:37:56.505Z,14.59
2023-04-10T21:40:24.842Z,14.92
2023-04-10T21:42:53.371Z,14.12
2023-04-10T21:45:23.568Z,14.84
2023-04-10T21:47:51.074Z,14.56
2023-04-10T21:50:18.645Z,14.90
2023-04-10T21:52:46.125Z,15.39
2023-04-10T21:55:15.291Z,15.18
2023-04-10T21:57:42.748Z,15.12
2023-04-10T22:00:12.443Z,14.90
2023-04-10T22:02:41.358Z,15.22
2023-04-10T22:05:09.361Z,14.56
2023-04-10T22:07:36.811Z,14.92
2023-04-10T22:10:04.620Z,14.54
2023-04-10T22:12:32.094Z,14.75
2023-04-10T22:14:59.536Z,14.33
2023-04-10T22:17:27.146Z,14.84
2023-04-10T22:19:55.885Z,14.71
2023-04-10T22:22:23.342Z,14.74
2023-04-10T22:24:50.951Z,14.60
2023-04-10T22:27:18.399Z,14.42
2023-04-10T22:29:56.215Z,14.60
2023-04-10T22:32:30.126Z,14.46
2023-04-10T22:35:00.621Z,13.76
2023-04-10T22:37:28.262Z,14.58
2023-04-10T22:39:56.226Z,14.02
2023-04-10T22:42:24.082Z,14.41
2023-04-10T22:44:51.573Z,14.33
2023-04-10T22:47:19.007Z,14.92
2023-04-10T22:49:46.484Z,14.53
2023-04-10T22:52:16.245Z,14.80
2023-04-10T22:54:43.683Z,14.78
2023-04-10T22:57:11.133Z,15.00
2023-04-10T22:59:38.731Z,14.79
2023-04-10T23:02:06.316Z,14.77
2023-04-10T23:04:34.042Z,15.00
2023-04-10T23:07:01.556Z,14.90
2023-04-10T23:09:30.328Z,14.92
2023-04-10T23:11:57.783Z,14.70
2023-04-10T23:14:25.198Z,14.92
2023-04-10T23:16:52.619Z,15.05
2023-04-10T23:19:20.052Z,15.00
2023-04-10T23:21:47.549Z,14.39
2023-04-10T23:24:14.979Z,14.59
2023-04-10T23:26:43.772Z,14.76
2023-04-10T23:29:11.219Z,14.63
2023-04-10T23:31:38.705Z,14.52
2023-04-10T23:34:06.203Z,14.46
2023-04-10T23:36:33.620Z,13.82
2023-04-10T23:39:01.039Z,14.13
2023-04-10T23:41:28.470Z,14.05
2023-04-10T23:43:57.264Z,14.20
2023-04-10T23:46:24.830Z,14.58
2023-04-10T23:48:54.317Z,14.52
2023-04-10T23:51:21.940Z,14.10
2023-04-10T23:53:49.331Z,13.99
2023-04-10T23:56:16.804Z,14.07
2023-04-10T23:58:44.247Z,14.21
